Ana Sayfa
METAR-TAF:

METAR-TAF

Havaalanları :

Sunlight Mountain, Colorado, Amerika Birleşik Devletleri

Enlem: 39-25-32N, Boylam: 107-22-45W, yükseklik: 3232 m

Güncel hava durumu gözlemi

Rapor saat 18:48 UTC de 19 dakika önce yapıldı.
Rüzgar güneybatıdan 17 kt ve 28 kt'a kadar ani rüzgarlar, güney/güneybatı ve batı arasında değişken
Sıcaklık 12°C
Nem 44%
Basınç 1023 hPa
Görüş mesafesi: 16.1 km
12000 ft yükseklikte parçalı çok bulutlu
civarda gök gürültülü fırtına

METAR: K5SM 201848Z AUTO 23017G28KT 210V280 10SM VCTS BKN120 12/00 A3022 RMK AO2 LTG DSNT SE AND S

Saat: 13:07 (19:07 UTC)


TAF: eksik

4.000'den fazla havaalanı için hava durumu gözlemleri ve tahminleri (METAR ve TAF raporları).

Kullanılabilir istasyonlar harita üzerinde sarı ve kırmızı noktalarla gösterilir.

İstasyonun adını görmek için fareyi noktanın üzerinde gezdirin.

Sonrasında hava gözlem ve tahminlerini görmek için tıklayın.

Haritayı değiştirmek için: yaklaştırmak için siyah artı işaretli yeşil düğmeye ve uzaklaştırmak için de eksi işaretli düğmeye hızla tıklayın; bitişik haritalar için yeşil okları kullanın.


METAR-TAF: